Time;durP1;ratioP1;P1;durP2;ratioP2;P2;SDS_P1;SDS_P2;PMS_P1;PMS_P2;Temp;Humidity;BMP_temperature;BMP_pressure;BME280_temperature;BME280_humidity;BME280_pressure;Samples;Min_cycle;Max_cycle;Signal;HPM_P1;HPM_P2
2021/10/03 00:00:12;;;;;;;8.52;6.53;;;17.30;74.20;;;;;;4863846;29;20060;-68
2021/10/03 00:02:41;;;;;;;10.65;7.10;;;17.40;74.10;;;;;;4859377;29;20041;-68
2021/10/03 00:05:09;;;;;;;11.43;6.90;;;17.40;73.20;;;;;;4855055;29;20045;-68
2021/10/03 00:07:37;;;;;;;9.45;6.75;;;17.40;73.20;;;;;;4868243;29;20494;-68
2021/10/03 00:10:03;;;;;;;10.07;7.07;;;17.40;73.20;;;;;;4855192;29;20041;-68
2021/10/03 00:12:29;;;;;;;13.05;7.57;;;17.50;73.00;;;;;;4858585;29;20079;-68
2021/10/03 00:14:54;;;;;;;11.93;7.78;;;17.40;73.20;;;;;;4862508;29;20044;-68
2021/10/03 00:17:20;;;;;;;10.20;7.63;;;17.50;72.90;;;;;;4866771;29;20100;-68
2021/10/03 00:19:46;;;;;;;10.60;7.47;;;17.50;72.70;;;;;;4868928;29;20033;-68
2021/10/03 00:22:12;;;;;;;11.63;7.72;;;17.50;73.20;;;;;;4867824;29;20037;-68
2021/10/03 00:24:38;;;;;;;12.73;7.55;;;17.50;72.80;;;;;;4863142;29;20037;-67
2021/10/03 00:27:04;;;;;;;10.75;7.78;;;17.50;72.80;;;;;;4857722;29;20105;-67
2021/10/03 00:29:31;;;;;;;15.05;8.00;;;17.50;72.70;;;;;;4865696;29;20045;-68
2021/10/03 00:31:57;;;;;;;12.48;8.63;;;17.50;72.90;;;;;;4854934;29;20225;-68
2021/10/03 00:34:22;;;;;;;10.82;8.07;;;17.50;72.90;;;;;;4858439;29;20029;-68
2021/10/03 00:36:48;;;;;;;12.60;8.48;;;17.50;72.50;;;;;;4861920;29;20036;-68
2021/10/03 00:39:14;;;;;;;15.18;8.13;;;17.50;72.70;;;;;;4866344;29;20633;-68
2021/10/03 00:41:40;;;;;;;10.90;8.48;;;17.40;72.50;;;;;;4868791;29;20055;-68
2021/10/03 00:44:06;;;;;;;12.20;8.30;;;17.50;72.50;;;;;;4867153;29;20051;-66
2021/10/03 00:46:32;;;;;;;13.73;8.55;;;17.40;73.30;;;;;;4861803;29;20054;-68
2021/10/03 00:48:58;;;;;;;12.40;8.45;;;17.40;72.30;;;;;;4867482;29;20699;-67
2021/10/03 00:51:24;;;;;;;13.18;8.90;;;17.40;72.40;;;;;;4853644;29;20037;-66
2021/10/03 00:53:50;;;;;;;17.13;9.07;;;17.40;72.40;;;;;;4853598;29;20049;-68
2021/10/03 00:56:17;;;;;;;14.38;8.70;;;17.30;72.20;;;;;;4858656;29;20048;-68
2021/10/03 00:58:44;;;;;;;12.50;9.25;;;17.30;72.20;;;;;;4862814;29;20125;-68
2021/10/03 01:01:11;;;;;;;12.57;9.82;;;17.30;72.70;;;;;;4867544;29;20044;-68
2021/10/03 01:03:37;;;;;;;11.35;8.98;;;17.20;71.70;;;;;;4868916;29;20051;-68
2021/10/03 01:06:06;;;;;;;15.60;9.43;;;17.20;72.40;;;;;;4865226;29;20132;-68
2021/10/03 01:08:32;;;;;;;15.90;9.80;;;17.20;72.40;;;;;;4861390;29;20248;-68
2021/10/03 01:10:57;;;;;;;17.13;9.57;;;17.30;72.20;;;;;;4856798;29;20037;-68
2021/10/03 01:13:24;;;;;;;13.43;9.15;;;17.20;72.10;;;;;;4852965;29;20029;-69
2021/10/03 01:15:52;;;;;;;12.98;9.75;;;17.30;71.60;;;;;;4867958;29;20045;-68
2021/10/03 01:18:19;;;;;;;13.02;9.80;;;17.30;71.60;;;;;;4857751;29;20025;-69
2021/10/03 01:20:46;;;;;;;13.02;9.20;;;17.20;71.30;;;;;;4862474;29;20033;-68
2021/10/03 01:23:13;;;;;;;13.57;10.02;;;17.30;71.00;;;;;;4866004;29;20041;-69
2021/10/03 01:25:45;;;;;;;13.73;9.43;;;17.30;71.10;;;;;;4867667;29;20068;-68
2021/10/03 01:28:11;;;;;;;13.27;8.77;;;17.20;70.80;;;;;;4855675;29;20037;-68
2021/10/03 01:30:39;;;;;;;17.17;9.85;;;17.20;71.10;;;;;;4857978;29;20454;-68
2021/10/03 01:33:05;;;;;;;16.17;10.20;;;17.20;70.90;;;;;;4864814;29;20452;-68
2021/10/03 01:35:31;;;;;;;16.20;10.20;;;17.20;70.70;;;;;;4867558;29;20037;-68
2021/10/03 01:37:57;;;;;;;13.27;9.70;;;17.20;70.80;;;;;;4865941;29;20041;-68
2021/10/03 01:40:23;;;;;;;15.18;9.60;;;17.20;70.50;;;;;;4861955;29;20048;-68
2021/10/03 01:42:52;;;;;;;12.50;9.63;;;17.20;70.60;;;;;;4857983;29;20438;-68
2021/10/03 01:45:20;;;;;;;12.98;9.35;;;17.30;70.30;;;;;;4854724;29;20109;-68
2021/10/03 01:48:05;;;;;;;14.90;9.05;;;17.30;69.60;;;;;;4852152;29;20145;-68
2021/10/03 01:50:32;;;;;;;16.15;9.10;;;17.20;69.60;;;;;;4857802;29;20468;-68
2021/10/03 01:52:58;;;;;;;11.70;9.23;;;17.20;69.60;;;;;;4860319;29;20066;-68
2021/10/03 01:55:23;;;;;;;13.52;9.40;;;17.20;69.60;;;;;;4864983;29;20037;-68
2021/10/03 01:57:49;;;;;;;12.18;9.25;;;17.20;69.40;;;;;;4868252;29;20044;-68
2021/10/03 02:00:15;;;;;;;12.85;9.27;;;17.30;69.00;;;;;;4865803;29;20133;-68
2021/10/03 02:02:41;;;;;;;12.63;9.00;;;17.20;69.00;;;;;;4861953;29;20040;-68
2021/10/03 02:05:07;;;;;;;12.73;9.23;;;17.20;68.90;;;;;;4857635;29;20045;-68
2021/10/03 02:07:33;;;;;;;12.00;9.18;;;17.20;69.00;;;;;;4852320;29;20034;-68
2021/10/03 02:09:59;;;;;;;12.38;8.98;;;17.30;68.80;;;;;;4852167;29;20041;-68
2021/10/03 02:12:25;;;;;;;13.73;9.68;;;17.20;68.40;;;;;;4855601;29;20410;-67
2021/10/03 02:14:51;;;;;;;11.95;8.93;;;17.20;67.80;;;;;;4858964;29;20030;-68
2021/10/03 02:17:17;;;;;;;12.52;8.95;;;17.30;68.00;;;;;;4854563;29;20693;-68
2021/10/03 02:19:43;;;;;;;17.05;9.23;;;17.30;68.00;;;;;;4856743;29;20041;-68
2021/10/03 02:22:09;;;;;;;13.80;8.90;;;17.20;67.60;;;;;;4854608;29;20310;-68
2021/10/03 02:24:35;;;;;;;12.20;8.63;;;17.20;67.50;;;;;;4857859;29;20038;-68
2021/10/03 02:27:02;;;;;;;14.05;10.13;;;17.20;67.20;;;;;;4859812;29;20040;-68
2021/10/03 02:29:28;;;;;;;12.13;8.70;;;17.30;66.90;;;;;;4866015;29;20029;-68
2021/10/03 02:31:54;;;;;;;12.52;9.13;;;17.20;66.70;;;;;;4866583;29;20036;-68
2021/10/03 02:34:21;;;;;;;13.82;9.50;;;17.10;67.50;;;;;;4862978;29;20078;-68
2021/10/03 02:36:48;;;;;;;11.00;8.32;;;17.20;67.00;;;;;;4858639;29;20049;-68
2021/10/03 02:39:14;;;;;;;11.73;8.75;;;17.20;67.00;;;;;;4858274;29;20426;-68
2021/10/03 02:41:40;;;;;;;12.68;9.15;;;17.20;66.00;;;;;;4867834;29;20045;-68
2021/10/03 02:44:08;;;;;;;13.27;8.90;;;17.20;66.70;;;;;;4864826;29;20765;-68
2021/10/03 02:46:34;;;;;;;11.60;8.88;;;17.20;67.00;;;;;;4875036;29;20184;-68
2021/10/03 02:49:01;;;;;;;10.18;8.48;;;17.10;66.70;;;;;;4855850;29;20043;-68
2021/10/03 02:51:29;;;;;;;15.88;9.57;;;17.10;66.80;;;;;;4852809;29;20165;-68
2021/10/03 02:53:56;;;;;;;13.48;9.25;;;17.00;66.40;;;;;;4852085;29;20041;-68
2021/10/03 02:56:25;;;;;;;11.10;8.43;;;17.00;66.80;;;;;;4855540;29;20097;-68
2021/10/03 02:58:51;;;;;;;14.23;8.57;;;17.00;66.40;;;;;;4859748;29;20783;-68
2021/10/03 03:01:17;;;;;;;17.00;8.98;;;17.00;66.30;;;;;;4863956;29;20060;-68
2021/10/03 03:03:43;;;;;;;13.02;8.95;;;17.10;66.40;;;;;;4867276;29;20474;-68
2021/10/03 03:06:10;;;;;;;11.48;8.80;;;17.10;66.90;;;;;;4864222;29;20124;-68
2021/10/03 03:08:36;;;;;;;14.00;8.35;;;17.00;66.20;;;;;;4860089;29;20037;-68
2021/10/03 03:11:02;;;;;;;11.02;8.45;;;17.00;65.60;;;;;;4854666;29;20169;-68
2021/10/03 03:13:28;;;;;;;14.02;8.38;;;17.10;66.20;;;;;;4851809;29;20461;-68
2021/10/03 03:15:55;;;;;;;11.05;8.45;;;17.10;65.00;;;;;;4851604;29;20029;-68
2021/10/03 03:18:21;;;;;;;9.32;7.22;;;17.10;65.10;;;;;;4860152;29;20091;-68
2021/10/03 03:20:47;;;;;;;11.95;8.48;;;17.10;65.90;;;;;;4858040;29;20582;-68
2021/10/03 03:23:13;;;;;;;13.13;7.97;;;17.10;65.30;;;;;;4854004;29;20038;-68
2021/10/03 03:25:38;;;;;;;12.98;8.73;;;17.10;65.60;;;;;;4850065;29;20044;-68
2021/10/03 03:28:06;;;;;;;12.20;8.52;;;17.20;65.90;;;;;;4854050;29;20045;-68
2021/10/03 03:30:33;;;;;;;11.63;8.20;;;17.20;65.50;;;;;;4858015;29;20518;-68
2021/10/03 03:32:58;;;;;;;13.20;9.15;;;17.20;65.10;;;;;;4862387;29;20075;-68
2021/10/03 03:35:25;;;;;;;13.50;8.23;;;17.20;65.50;;;;;;4866900;29;20069;-68
2021/10/03 03:37:51;;;;;;;12.95;7.97;;;17.20;65.30;;;;;;4866056;29;20102;-68
2021/10/03 03:40:19;;;;;;;11.00;7.57;;;17.10;64.70;;;;;;4858971;29;20041;-68
2021/10/03 03:42:46;;;;;;;12.05;8.50;;;17.10;65.40;;;;;;4859105;29;20076;-68
2021/10/03 03:45:12;;;;;;;11.07;8.65;;;17.00;65.80;;;;;;4857277;29;20056;-68
2021/10/03 03:47:38;;;;;;;11.15;8.20;;;17.10;66.00;;;;;;4867406;29;20031;-68
2021/10/03 03:50:07;;;;;;;14.20;8.43;;;17.10;65.70;;;;;;4881202;29;20088;-68
2021/10/03 03:52:33;;;;;;;10.50;7.68;;;17.00;64.90;;;;;;4863504;29;20435;-68
2021/10/03 03:54:59;;;;;;;11.75;8.48;;;17.00;65.30;;;;;;4858185;29;20038;-68
2021/10/03 03:57:25;;;;;;;10.65;8.07;;;17.10;65.00;;;;;;4853811;29;20044;-68
2021/10/03 03:59:50;;;;;;;12.57;7.18;;;17.10;64.80;;;;;;4854636;29;20041;-68
2021/10/03 04:02:17;;;;;;;14.00;8.63;;;17.10;64.90;;;;;;4858570;29;20093;-68
2021/10/03 04:04:43;;;;;;;13.18;8.10;;;17.10;65.00;;;;;;4863251;29;20045;-68
2021/10/03 04:07:09;;;;;;;11.98;8.07;;;17.10;65.20;;;;;;4866647;29;20157;-68
2021/10/03 04:09:35;;;;;;;9.18;7.63;;;17.10;65.00;;;;;;4869612;29;20120;-68
2021/10/03 04:12:01;;;;;;;12.23;7.65;;;17.00;65.70;;;;;;4871087;29;20029;-68
2021/10/03 04:14:27;;;;;;;10.85;7.65;;;17.10;65.60;;;;;;4866195;29;20509;-68
2021/10/03 04:16:53;;;;;;;11.60;8.13;;;17.00;65.80;;;;;;4870008;29;20040;-68
2021/10/03 04:19:19;;;;;;;13.80;8.25;;;17.00;65.70;;;;;;4863459;29;20110;-68
2021/10/03 04:21:45;;;;;;;9.88;8.18;;;17.00;65.20;;;;;;4864130;29;20056;-68
2021/10/03 04:24:10;;;;;;;14.55;8.45;;;17.10;65.20;;;;;;4864274;29;20067;-68
2021/10/03 04:26:36;;;;;;;13.77;7.80;;;17.00;65.40;;;;;;4866899;29;20033;-68
2021/10/03 04:29:02;;;;;;;13.60;8.35;;;17.00;65.40;;;;;;4866450;29;20065;-68
2021/10/03 04:31:28;;;;;;;15.32;9.07;;;17.00;65.00;;;;;;4870643;29;20036;-68
2021/10/03 04:33:56;;;;;;;18.42;8.68;;;17.00;64.90;;;;;;4879981;29;20115;-68
2021/10/03 04:36:23;;;;;;;12.70;7.72;;;17.10;65.60;;;;;;4862094;29;20068;-68
2021/10/03 04:38:48;;;;;;;10.90;6.97;;;17.10;64.90;;;;;;4865461;29;20056;-68
2021/10/03 04:41:14;;;;;;;10.90;7.70;;;17.10;65.50;;;;;;4872387;29;20037;-67
2021/10/03 04:43:40;;;;;;;12.13;7.35;;;17.10;65.30;;;;;;4863666;29;20689;-68
2021/10/03 04:46:06;;;;;;;14.77;8.48;;;17.00;66.10;;;;;;4862313;29;20679;-68
2021/10/03 04:48:31;;;;;;;15.13;7.82;;;17.00;65.30;;;;;;4861667;29;20040;-67
2021/10/03 04:50:57;;;;;;;10.50;7.43;;;17.00;65.40;;;;;;4865977;29;20065;-68
2021/10/03 04:53:23;;;;;;;14.63;8.10;;;17.00;65.70;;;;;;4876998;29;20064;-68
2021/10/03 04:55:48;;;;;;;12.05;7.40;;;17.00;65.50;;;;;;4875028;29;20932;-67
2021/10/03 04:58:14;;;;;;;13.57;8.07;;;17.00;65.60;;;;;;4870225;29;20073;-68
2021/10/03 05:00:40;;;;;;;13.75;7.55;;;17.00;65.30;;;;;;4864372;29;20055;-68
2021/10/03 05:03:05;;;;;;;10.60;7.40;;;17.00;65.40;;;;;;4867956;29;20536;-67
2021/10/03 05:05:31;;;;;;;12.77;7.72;;;16.90;65.00;;;;;;4868519;29;20100;-68
2021/10/03 05:07:56;;;;;;;10.55;8.43;;;16.90;65.50;;;;;;4867567;29;20033;-68
2021/10/03 05:10:22;;;;;;;10.95;7.80;;;16.90;65.50;;;;;;4863604;29;20035;-67
2021/10/03 05:12:48;;;;;;;10.88;7.05;;;17.00;65.30;;;;;;4867361;29;20991;-68
2021/10/03 05:15:14;;;;;;;17.20;9.00;;;16.90;65.80;;;;;;4859526;29;20040;-68
2021/10/03 05:17:39;;;;;;;15.50;8.15;;;16.90;65.20;;;;;;4861898;29;20037;-68
2021/10/03 05:20:05;;;;;;;13.10;7.22;;;16.90;65.70;;;;;;4862086;29;20088;-68
2021/10/03 05:22:32;;;;;;;10.18;7.70;;;17.00;65.80;;;;;;4866152;29;20108;-68
2021/10/03 05:24:57;;;;;;;11.80;7.82;;;17.00;65.40;;;;;;4868416;29;20048;-67
2021/10/03 05:27:23;;;;;;;14.68;8.02;;;17.00;65.60;;;;;;4868921;29;20040;-68
2021/10/03 05:29:49;;;;;;;10.98;7.60;;;17.00;65.70;;;;;;4860550;29;20037;-69
2021/10/03 05:32:15;;;;;;;9.85;7.53;;;17.00;65.10;;;;;;4861163;29;20037;-68
2021/10/03 05:34:40;;;;;;;15.70;8.38;;;17.00;65.40;;;;;;4871990;29;20043;-70
2021/10/03 05:37:06;;;;;;;17.33;7.95;;;17.00;65.40;;;;;;4867980;29;20041;-70
2021/10/03 05:39:32;;;;;;;10.52;7.72;;;17.00;65.80;;;;;;4865965;29;20112;-70
2021/10/03 05:41:57;;;;;;;11.73;8.50;;;17.10;65.10;;;;;;4861252;29;20525;-68
2021/10/03 05:44:23;;;;;;;13.38;8.50;;;17.10;65.60;;;;;;4857140;29;20108;-68
2021/10/03 05:46:49;;;;;;;12.13;8.60;;;17.10;65.80;;;;;;4857460;29;20037;-68
2021/10/03 05:49:14;;;;;;;16.15;8.20;;;17.00;65.90;;;;;;4852419;29;20045;-68
2021/10/03 05:51:40;;;;;;;11.75;7.43;;;17.10;65.70;;;;;;4856651;29;20045;-68
2021/10/03 05:54:08;;;;;;;14.85;8.68;;;17.10;65.20;;;;;;4876860;29;20033;-68
2021/10/03 05:56:35;;;;;;;12.80;7.97;;;17.10;65.30;;;;;;4864754;29;20041;-68
2021/10/03 05:59:02;;;;;;;11.15;8.05;;;17.10;65.50;;;;;;4860528;29;20043;-68
2021/10/03 06:01:30;;;;;;;12.50;8.32;;;17.20;65.20;;;;;;4862033;29;20047;-68
2021/10/03 06:03:56;;;;;;;11.32;7.90;;;17.20;65.00;;;;;;4872501;29;20593;-68
2021/10/03 06:06:22;;;;;;;13.07;8.82;;;17.10;65.40;;;;;;4856600;29;20491;-67
2021/10/03 06:08:48;;;;;;;15.43;8.60;;;17.10;65.30;;;;;;4852507;29;20045;-68
2021/10/03 06:11:14;;;;;;;10.75;8.55;;;17.10;65.60;;;;;;4852428;29;20514;-68
2021/10/03 06:13:40;;;;;;;10.07;7.65;;;17.10;65.10;;;;;;4868398;29;20076;-68
2021/10/03 06:16:07;;;;;;;12.30;7.70;;;17.20;65.90;;;;;;4863760;29;20033;-68
2021/10/03 06:18:33;;;;;;;13.45;7.88;;;17.20;65.80;;;;;;4878412;29;20100;-68
2021/10/03 06:20:59;;;;;;;12.18;8.13;;;17.20;65.60;;;;;;4867794;29;20048;-68
2021/10/03 06:23:25;;;;;;;15.00;8.57;;;17.20;65.60;;;;;;4872845;29;20032;-68
2021/10/03 06:25:50;;;;;;;10.70;7.68;;;17.30;65.40;;;;;;4860749;29;20033;-68
2021/10/03 06:28:16;;;;;;;12.63;8.32;;;17.20;65.70;;;;;;4862112;29;20080;-67
2021/10/03 06:30:42;;;;;;;12.10;8.50;;;17.20;65.60;;;;;;4867189;29;20045;-68
2021/10/03 06:33:08;;;;;;;10.60;8.35;;;17.30;65.30;;;;;;4856253;29;20026;-67
2021/10/03 06:35:33;;;;;;;13.70;8.50;;;17.30;65.50;;;;;;4858735;29;20556;-68
2021/10/03 06:37:59;;;;;;;11.40;8.73;;;17.30;65.20;;;;;;4864265;29;20048;-71
2021/10/03 06:40:26;;;;;;;11.80;8.35;;;17.30;65.70;;;;;;4862193;29;20045;-68
2021/10/03 06:42:52;;;;;;;12.43;8.50;;;17.30;65.60;;;;;;4851468;29;20040;-68
2021/10/03 06:45:18;;;;;;;9.55;7.53;;;17.40;66.40;;;;;;4876531;29;20091;-68
2021/10/03 06:47:43;;;;;;;11.13;8.55;;;17.40;65.30;;;;;;4865102;29;20128;-68
2021/10/03 06:50:10;;;;;;;10.98;7.97;;;17.40;65.20;;;;;;4855445;29;20033;-69
2021/10/03 06:52:36;;;;;;;11.63;7.97;;;17.50;65.50;;;;;;4872429;29;20037;-67
2021/10/03 06:55:03;;;;;;;15.32;8.13;;;17.50;65.10;;;;;;4864089;29;20047;-68
2021/10/03 06:57:29;;;;;;;10.35;8.52;;;17.50;64.90;;;;;;4864218;29;20041;-68
2021/10/03 06:59:54;;;;;;;12.23;8.07;;;17.50;65.20;;;;;;4863340;29;20045;-67
2021/10/03 07:02:24;;;;;;;11.75;8.25;;;17.50;65.20;;;;;;4858489;29;20033;-67
2021/10/03 07:04:50;;;;;;;12.05;8.80;;;17.50;65.00;;;;;;4850607;29;20047;-67
2021/10/03 07:07:16;;;;;;;13.40;8.13;;;17.60;65.40;;;;;;4858542;29;20037;-66
2021/10/03 07:09:42;;;;;;;13.82;8.60;;;17.60;65.20;;;;;;4842375;29;20064;-67
2021/10/03 07:12:08;;;;;;;11.32;7.93;;;17.70;65.40;;;;;;4857220;29;20124;-67
2021/10/03 07:14:34;;;;;;;10.70;8.57;;;17.70;64.80;;;;;;4857931;29;20074;-66
2021/10/03 07:16:59;;;;;;;13.02;8.80;;;17.80;64.30;;;;;;4857749;29;20067;-65
2021/10/03 07:19:25;;;;;;;15.43;8.23;;;17.80;65.20;;;;;;4864714;29;20109;-66
2021/10/03 07:21:51;;;;;;;11.02;7.82;;;17.80;64.20;;;;;;4869956;29;20078;-65
2021/10/03 07:24:17;;;;;;;11.18;8.50;;;17.80;64.60;;;;;;4865751;29;20042;-70
2021/10/03 07:26:42;;;;;;;10.85;7.78;;;17.80;64.90;;;;;;4857547;29;20067;-68
2021/10/03 07:29:08;;;;;;;10.90;8.18;;;17.80;65.30;;;;;;4870122;29;20047;-68
2021/10/03 07:31:34;;;;;;;11.88;7.95;;;17.90;65.70;;;;;;4866987;29;20050;-69
2021/10/03 07:34:00;;;;;;;10.95;8.30;;;17.90;64.80;;;;;;4871742;29;20421;-68
2021/10/03 07:36:26;;;;;;;10.55;8.00;;;17.80;65.30;;;;;;4867848;29;20037;-68
2021/10/03 07:38:51;;;;;;;12.45;8.82;;;17.80;66.10;;;;;;4869081;29;20037;-69
2021/10/03 07:41:19;;;;;;;12.10;8.70;;;17.90;65.80;;;;;;4869801;29;20186;-69
2021/10/03 07:43:46;;;;;;;10.82;7.97;;;17.90;65.30;;;;;;4867796;29;20033;-70
2021/10/03 07:46:12;;;;;;;12.52;8.30;;;17.90;65.20;;;;;;4888017;29;20083;-69
2021/10/03 07:48:38;;;;;;;12.30;8.52;;;18.00;65.00;;;;;;4860907;29;20081;-69
2021/10/03 07:51:04;;;;;;;11.82;8.98;;;18.00;65.20;;;;;;4858946;29;20033;-67
2021/10/03 07:53:30;;;;;;;12.20;8.13;;;18.00;64.00;;;;;;4880716;29;20502;-67
2021/10/03 07:55:56;;;;;;;16.63;7.63;;;18.10;64.70;;;;;;4859074;29;20047;-68
2021/10/03 07:58:22;;;;;;;12.90;8.18;;;18.10;64.80;;;;;;4864341;29;20041;-68
2021/10/03 08:00:48;;;;;;;10.98;8.05;;;18.10;64.60;;;;;;4869017;29;20066;-68
2021/10/03 08:03:14;;;;;;;11.32;7.72;;;18.20;64.60;;;;;;4865684;29;20037;-67
2021/10/03 08:05:39;;;;;;;12.00;8.10;;;18.20;64.30;;;;;;4866704;29;20037;-68
2021/10/03 08:08:05;;;;;;;9.43;7.72;;;18.20;63.60;;;;;;4868016;29;20037;-68
2021/10/03 08:10:31;;;;;;;9.30;7.72;;;18.20;64.10;;;;;;4869768;29;20042;-67
2021/10/03 08:12:57;;;;;;;9.77;8.32;;;18.20;64.50;;;;;;4867309;29;20803;-68
2021/10/03 08:15:27;;;;;;;12.13;7.63;;;18.30;63.90;;;;;;4861692;29;20065;-70
2021/10/03 08:17:54;;;;;;;9.68;8.35;;;18.30;63.90;;;;;;4872368;29;20038;-68
2021/10/03 08:20:21;;;;;;;12.82;7.70;;;18.30;63.50;;;;;;4870051;29;20056;-68
2021/10/03 08:22:48;;;;;;;11.60;7.95;;;18.40;64.00;;;;;;4868157;29;20556;-69
2021/10/03 08:25:14;;;;;;;9.88;7.63;;;18.40;63.90;;;;;;4864481;29;20041;-68
2021/10/03 08:27:41;;;;;;;10.60;8.00;;;18.40;62.90;;;;;;4859954;29;20105;-68
2021/10/03 08:30:08;;;;;;;11.57;7.93;;;18.40;63.20;;;;;;4865640;29;20496;-70
2021/10/03 08:32:34;;;;;;;9.52;7.60;;;18.40;63.60;;;;;;4866621;29;20458;-69
2021/10/03 08:35:00;;;;;;;10.65;7.78;;;18.40;63.00;;;;;;4863921;29;20048;-69
2021/10/03 08:37:25;;;;;;;12.30;7.75;;;18.40;63.70;;;;;;4858850;29;20056;-69
2021/10/03 08:39:52;;;;;;;10.23;7.32;;;18.50;63.60;;;;;;4867082;29;20039;-69
2021/10/03 08:42:18;;;;;;;13.82;8.35;;;18.60;63.20;;;;;;4868293;29;20386;-68
2021/10/03 08:44:44;;;;;;;10.43;7.60;;;18.60;63.10;;;;;;4875764;29;20040;-68
2021/10/03 08:47:10;;;;;;;10.93;7.53;;;18.60;63.50;;;;;;4867704;29;20044;-69
2021/10/03 08:49:38;;;;;;;10.20;7.97;;;18.70;63.30;;;;;;4867330;29;20048;-69
2021/10/03 08:52:05;;;;;;;10.13;8.23;;;18.80;63.60;;;;;;4852285;29;20140;-67
2021/10/03 08:54:39;;;;;;;16.95;7.47;;;18.90;63.10;;;;;;4861160;29;20554;-68
2021/10/03 08:57:08;;;;;;;11.27;7.60;;;19.00;62.30;;;;;;4865867;29;20048;-68
2021/10/03 08:59:34;;;;;;;8.93;6.82;;;19.10;62.40;;;;;;4858534;29;20092;-67
2021/10/03 09:02:03;;;;;;;11.00;7.55;;;19.00;61.90;;;;;;4862684;29;20120;-68
2021/10/03 09:04:36;;;;;;;12.25;8.13;;;19.00;61.80;;;;;;4877969;29;20041;-68
2021/10/03 09:07:14;;;;;;;10.32;7.53;;;19.00;62.20;;;;;;4867136;29;20570;-67
2021/10/03 09:09:51;;;;;;;8.65;7.05;;;19.00;63.20;;;;;;4864835;29;20145;-69
2021/10/03 09:12:35;;;;;;;8.48;7.07;;;19.00;62.60;;;;;;4864908;29;20542;-70
2021/10/03 09:15:19;;;;;;;11.25;7.10;;;19.00;62.40;;;;;;4870519;29;20029;-69
2021/10/03 09:17:50;;;;;;;16.45;7.40;;;19.10;62.30;;;;;;4860201;29;20053;-69
2021/10/03 09:20:24;;;;;;;11.73;7.57;;;19.20;62.50;;;;;;4859247;29;20092;-69
2021/10/03 09:22:58;;;;;;;8.80;7.45;;;19.20;62.00;;;;;;4868983;29;20088;-69
2021/10/03 09:25:30;;;;;;;9.50;7.88;;;19.30;62.20;;;;;;4865775;29;20044;-70
2021/10/03 09:27:56;;;;;;;10.40;7.30;;;19.30;61.70;;;;;;4869399;29;20067;-69
2021/10/03 09:30:21;;;;;;;11.15;7.13;;;19.30;62.50;;;;;;4873283;29;20670;-70
2021/10/03 09:32:56;;;;;;;10.95;7.47;;;19.30;62.00;;;;;;4859976;29;20040;-68
2021/10/03 09:35:29;;;;;;;11.07;7.45;;;19.30;61.60;;;;;;4860277;29;20053;-69
2021/10/03 09:37:55;;;;;;;9.55;6.68;;;19.30;61.70;;;;;;4868620;29;20494;-68
2021/10/03 09:40:22;;;;;;;10.88;7.47;;;19.30;62.20;;;;;;4863445;29;20124;-69
2021/10/03 09:43:03;;;;;;;9.48;7.80;;;19.30;62.00;;;;;;4859811;29;20116;-69
2021/10/03 09:45:31;;;;;;;10.15;7.18;;;19.30;62.60;;;;;;4866226;29;20064;-70
2021/10/03 09:48:02;;;;;;;11.70;7.63;;;19.40;62.80;;;;;;4863190;29;20045;-70
2021/10/03 09:50:30;;;;;;;10.60;7.72;;;19.50;62.80;;;;;;4863637;29;20084;-70
2021/10/03 09:52:57;;;;;;;9.10;7.05;;;19.60;62.50;;;;;;4866822;29;20037;-70
2021/10/03 09:55:26;;;;;;;10.13;7.45;;;19.70;61.70;;;;;;4866522;29;20586;-68
2021/10/03 09:57:54;;;;;;;8.43;6.65;;;19.80;61.80;;;;;;4861612;29;20109;-68
2021/10/03 10:00:23;;;;;;;8.05;6.72;;;19.80;60.80;;;;;;4867620;29;20037;-69
2021/10/03 10:02:49;;;;;;;7.82;6.43;;;19.80;61.20;;;;;;4863464;29;20048;-69
2021/10/03 10:05:23;;;;;;;9.75;6.68;;;19.90;61.20;;;;;;4859849;29;20040;-69
2021/10/03 10:07:49;;;;;;;11.25;7.00;;;19.90;60.40;;;;;;4866311;29;20047;-69
2021/10/03 10:10:15;;;;;;;9.15;6.57;;;20.10;61.10;;;;;;4854977;29;20113;-68
2021/10/03 10:13:00;;;;;;;7.85;5.97;;;20.20;60.00;;;;;;4857722;29;20088;-72
2021/10/03 10:15:25;;;;;;;9.85;6.90;;;20.40;59.80;;;;;;4862376;29;20451;-69
2021/10/03 10:17:51;;;;;;;9.88;6.68;;;20.60;59.40;;;;;;4865524;29;20180;-69
2021/10/03 10:20:17;;;;;;;10.55;6.18;;;20.70;59.20;;;;;;4862688;29;20493;-69
2021/10/03 10:23:07;;;;;;;8.25;6.45;;;20.80;59.80;;;;;;4865071;29;20048;-69
2021/10/03 10:25:43;;;;;;;10.00;6.43;;;21.00;59.10;;;;;;4861923;29;20045;-69
2021/10/03 10:28:28;;;;;;;11.00;7.28;;;21.20;59.20;;;;;;4856293;29;20037;-68
2021/10/03 10:31:06;;;;;;;11.13;6.45;;;21.40;56.60;;;;;;4862933;29;20049;-69
2021/10/03 10:34:05;;;;;;;8.15;6.38;;;21.60;57.20;;;;;;4863392;29;20037;-69
2021/10/03 10:36:52;;;;;;;13.52;6.97;;;21.50;56.50;;;;;;4834839;29;20045;-71
2021/10/03 10:39:20;;;;;;;7.90;6.20;;;21.60;57.90;;;;;;4863903;29;20033;-69
2021/10/03 10:41:55;;;;;;;8.82;6.28;;;21.60;56.80;;;;;;4852787;29;20387;-69
2021/10/03 10:44:37;;;;;;;8.60;6.37;;;21.60;57.10;;;;;;4853070;29;20119;-70
2021/10/03 10:47:17;;;;;;;12.13;8.30;;;21.70;57.00;;;;;;4864075;29;20297;-69
2021/10/03 10:49:51;;;;;;;7.55;6.00;;;21.80;56.80;;;;;;4860755;29;20033;-71
2021/10/03 10:52:20;;;;;;;13.30;6.28;;;21.90;55.90;;;;;;4861637;29;20052;-71
2021/10/03 10:55:09;;;;;;;7.32;5.88;;;21.90;55.90;;;;;;4868618;29;20357;-70
2021/10/03 10:57:49;;;;;;;13.48;6.32;;;22.00;56.60;;;;;;4860702;29;20071;-71
2021/10/03 11:00:24;;;;;;;9.85;6.18;;;22.20;56.20;;;;;;4867130;29;20418;-70
2021/10/03 11:02:51;;;;;;;8.57;5.90;;;22.40;55.70;;;;;;4865036;29;20101;-70
2021/10/03 11:05:34;;;;;;;9.70;6.10;;;22.50;55.10;;;;;;4870150;29;20045;-70
2021/10/03 11:08:15;;;;;;;8.57;6.20;;;22.40;55.80;;;;;;4855407;29;20037;-71
2021/10/03 11:10:59;;;;;;;13.23;6.07;;;22.30;56.80;;;;;;4857665;29;20033;-69
2021/10/03 11:13:41;;;;;;;9.38;5.97;;;22.30;56.10;;;;;;4857647;29;20455;-69
2021/10/03 11:16:38;;;;;;;6.18;5.45;;;22.40;56.40;;;;;;4862696;29;20080;-71
2021/10/03 11:19:22;;;;;;;7.85;6.13;;;22.40;55.90;;;;;;4861972;29;20037;-70
2021/10/03 11:22:22;;;;;;;6.70;5.60;;;22.40;56.20;;;;;;4862273;29;20051;-72
2021/10/03 11:24:54;;;;;;;13.32;7.22;;;22.40;56.50;;;;;;4858957;29;20096;-70
2021/10/03 11:27:22;;;;;;;7.53;6.00;;;22.60;56.60;;;;;;4863141;29;20124;-70
2021/10/03 11:29:53;;;;;;;8.70;5.95;;;22.60;56.50;;;;;;4863621;29;20041;-70
2021/10/03 11:32:21;;;;;;;6.82;5.93;;;22.60;55.80;;;;;;4863204;29;20112;-70
2021/10/03 11:34:51;;;;;;;7.45;6.40;;;22.60;56.60;;;;;;4862390;29;20033;-70
2021/10/03 11:37:36;;;;;;;9.75;6.10;;;22.60;55.60;;;;;;4854406;29;20041;-70
2021/10/03 11:40:07;;;;;;;9.23;6.28;;;22.70;56.40;;;;;;4850818;29;20403;-68
2021/10/03 11:42:36;;;;;;;7.85;6.38;;;22.70;56.10;;;;;;4859292;29;20035;-70
2021/10/03 11:45:10;;;;;;;9.75;6.65;;;22.80;55.30;;;;;;4860527;29;20125;-70
2021/10/03 11:47:43;;;;;;;11.90;6.47;;;22.80;55.90;;;;;;4872339;29;20047;-68
2021/10/03 11:50:14;;;;;;;7.65;5.82;;;22.80;55.50;;;;;;4865739;29;20040;-68
2021/10/03 11:52:39;;;;;;;6.68;5.70;;;22.80;55.70;;;;;;4861529;29;20033;-68
2021/10/03 11:55:08;;;;;;;7.57;6.28;;;22.90;56.00;;;;;;4857872;29;20501;-68
2021/10/03 11:57:46;;;;;;;7.20;5.68;;;23.10;55.80;;;;;;4863818;29;20144;-69
2021/10/03 12:00:19;;;;;;;11.00;6.22;;;23.20;55.80;;;;;;4862694;29;20038;-68
2021/10/03 12:02:46;;;;;;;7.28;5.93;;;23.30;56.50;;;;;;4854051;29;20037;-68
2021/10/03 12:05:23;;;;;;;6.70;5.45;;;23.50;55.80;;;;;;4862610;29;20033;-68
2021/10/03 12:08:08;;;;;;;9.63;6.38;;;23.60;55.70;;;;;;4865570;29;20033;-68
2021/10/03 12:10:55;;;;;;;7.28;6.20;;;23.80;54.90;;;;;;4853507;29;20081;-68
2021/10/03 12:13:26;;;;;;;6.25;5.53;;;23.80;54.60;;;;;;4862708;29;20064;-68
2021/10/03 12:16:12;;;;;;;7.20;5.90;;;23.90;55.00;;;;;;4860794;29;20055;-69
2021/10/03 12:18:44;;;;;;;7.78;5.82;;;24.00;54.00;;;;;;4862700;29;20043;-68
2021/10/03 12:21:14;;;;;;;6.82;5.80;;;24.10;54.50;;;;;;4857045;29;20053;-69
2021/10/03 12:23:55;;;;;;;9.98;5.53;;;24.10;54.60;;;;;;4853403;29;20045;-68
2021/10/03 12:26:30;;;;;;;6.35;5.75;;;24.10;54.60;;;;;;4872612;29;20104;-68
2021/10/03 12:29:05;;;;;;;9.70;5.93;;;24.10;54.40;;;;;;4858017;29;20072;-69
2021/10/03 12:31:45;;;;;;;9.32;5.88;;;24.20;55.10;;;;;;4866429;29;20033;-68
2021/10/03 12:34:13;;;;;;;8.02;6.03;;;24.10;54.60;;;;;;4867948;29;20593;-68
2021/10/03 12:36:41;;;;;;;9.63;6.70;;;24.10;55.20;;;;;;4862006;29;20049;-68
2021/10/03 12:39:07;;;;;;;8.48;6.40;;;24.10;55.10;;;;;;4857975;29;20478;-69
2021/10/03 12:41:33;;;;;;;11.32;6.13;;;24.10;54.70;;;;;;4866022;29;20124;-69
2021/10/03 12:43:58;;;;;;;7.07;5.93;;;24.00;55.00;;;;;;4868042;29;20041;-69